Time;durP1;ratioP1;P1;durP2;ratioP2;P2;SDS_P1;SDS_P2;PMS_P1;PMS_P2;Temp;Humidity;BMP_temperature;BMP_pressure;BME280_temperature;BME280_humidity;BME280_pressure;Samples;Min_cycle;Max_cycle;Signal;HPM_P1;HPM_P2
2021/05/01 00:02:11;;;;;;;11.75;8.80;;;;;;;17.17;55.32;99296.81;4464821;32;33857;-84
2021/05/01 00:04:39;;;;;;;15.63;9.07;;;;;;;17.11;55.38;99299.66;4457996;32;35254;-85
2021/05/01 00:07:06;;;;;;;15.98;8.95;;;;;;;17.11;55.46;99287.38;4471309;32;34107;-84
2021/05/01 00:09:35;;;;;;;13.52;8.98;;;;;;;17.25;55.13;99290.41;4485091;32;33399;-85
2021/05/01 00:12:02;;;;;;;11.98;9.00;;;;;;;17.20;55.29;99287.06;4458330;32;33865;-85
2021/05/01 00:14:30;;;;;;;12.32;9.60;;;;;;;17.21;55.27;99278.25;4458254;32;35739;-85
2021/05/01 00:16:57;;;;;;;13.52;8.80;;;;;;;17.14;55.34;99281.19;4470793;32;34073;-85
2021/05/01 00:19:25;;;;;;;15.45;9.23;;;;;;;17.22;55.19;99285.25;4445392;32;33177;-85
2021/05/01 00:21:52;;;;;;;12.90;8.50;;;;;;;17.18;55.31;99280.16;4459698;32;33696;-85
2021/05/01 00:24:19;;;;;;;12.95;9.38;;;;;;;17.21;55.18;99274.78;4472960;32;35202;-85
2021/05/01 00:26:47;;;;;;;13.18;8.60;;;;;;;16.95;55.81;99273.03;4472919;32;33039;-85
2021/05/01 00:29:15;;;;;;;13.02;7.95;;;;;;;16.99;55.89;99268.56;4487097;32;34138;-85
2021/05/01 00:31:42;;;;;;;12.63;9.07;;;;;;;16.96;55.57;99274.78;4473165;32;33925;-85
2021/05/01 00:34:13;;;;;;;11.88;7.95;;;;;;;16.83;55.90;99279.56;4460869;32;34538;-85
2021/05/01 00:36:40;;;;;;;13.38;8.20;;;;;;;16.79;55.88;99274.47;4472951;32;34110;-85
2021/05/01 00:39:08;;;;;;;11.52;8.20;;;;;;;16.71;56.11;99285.22;4473284;32;33722;-85
2021/05/01 00:41:35;;;;;;;19.48;8.90;;;;;;;16.65;56.34;99277.56;4472962;32;33869;-85
2021/05/01 00:44:06;;;;;;;13.98;8.52;;;;;;;16.67;56.10;99275.75;4473149;32;34599;-85
2021/05/01 00:46:46;;;;;;;11.02;8.20;;;;;;;16.76;55.90;99280.69;4461270;32;34623;-86
2021/05/01 00:49:13;;;;;;;12.50;7.53;;;;;;;16.61;56.55;99281.22;4460373;32;33320;-86
2021/05/01 00:51:41;;;;;;;13.65;8.35;;;;;;;16.62;56.42;99272.41;4460300;32;35010;-85
2021/05/01 00:54:08;;;;;;;12.90;8.10;;;;;;;16.66;56.36;99267.94;4460150;32;35776;-85
2021/05/01 00:56:35;;;;;;;10.20;7.68;;;;;;;16.51;56.62;99271.91;4473089;32;34094;-85
2021/05/01 00:59:03;;;;;;;11.80;7.68;;;;;;;16.55;56.38;99263.00;4460041;32;33852;-86
2021/05/01 01:01:31;;;;;;;11.23;8.07;;;;;;;16.48;56.62;99269.34;4472840;32;33652;-85
2021/05/01 01:03:58;;;;;;;13.90;8.45;;;;;;;16.26;57.13;99274.41;4460158;32;35737;-85
2021/05/01 01:06:26;;;;;;;10.45;7.40;;;;;;;16.23;57.29;99268.41;4472788;32;34082;-86
2021/05/01 01:08:53;;;;;;;11.27;7.85;;;;;;;16.37;56.96;99273.22;4472796;32;33774;-85
2021/05/01 01:11:20;;;;;;;13.32;7.75;;;;;;;16.35;56.81;99273.28;4472725;32;34842;-86
2021/05/01 01:14:06;;;;;;;9.82;7.80;;;;;;;16.42;56.61;99274.81;4461657;32;33997;-86
2021/05/01 01:16:34;;;;;;;12.37;7.55;;;;;;;16.18;57.27;99286.06;4459516;32;33393;-85
2021/05/01 01:19:02;;;;;;;11.38;7.87;;;;;;;16.24;57.22;99291.09;4472614;32;33387;-86
2021/05/01 01:21:30;;;;;;;11.02;7.60;;;;;;;16.24;57.28;99284.09;4472700;32;34727;-86
2021/05/01 01:23:57;;;;;;;9.02;7.55;;;;;;;16.29;57.22;99291.81;4460037;32;34422;-85
2021/05/01 01:26:24;;;;;;;11.23;7.55;;;;;;;16.38;57.07;99291.53;4459854;32;34744;-86
2021/05/01 01:28:51;;;;;;;10.15;7.85;;;;;;;16.22;57.70;99291.16;4472605;32;33514;-86
2021/05/01 01:31:19;;;;;;;12.05;7.53;;;;;;;16.41;57.06;99283.56;4459790;32;34099;-85
2021/05/01 01:33:46;;;;;;;13.00;7.95;;;;;;;16.43;57.05;99271.25;4459401;32;34625;-85
2021/05/01 01:36:13;;;;;;;16.12;8.00;;;;;;;16.51;56.84;99273.62;4471993;32;34749;-85
2021/05/01 01:38:41;;;;;;;12.18;7.78;;;;;;;16.59;56.75;99272.50;4472434;32;33170;-86
2021/05/01 01:41:08;;;;;;;12.27;7.85;;;;;;;16.48;57.39;99279.84;4472514;32;33838;-86
2021/05/01 01:43:37;;;;;;;9.38;7.60;;;;;;;16.70;56.79;99280.91;4471927;32;34768;-86
2021/05/01 01:46:05;;;;;;;11.95;8.07;;;;;;;16.52;57.54;99270.97;4459208;32;34267;-86
2021/05/01 01:48:32;;;;;;;12.00;7.90;;;;;;;16.53;57.85;99267.47;4459323;32;33980;-86
2021/05/01 01:50:59;;;;;;;10.57;7.60;;;;;;;16.52;57.63;99276.22;4472772;32;33757;-86
2021/05/01 01:53:27;;;;;;;10.60;7.80;;;;;;;16.48;57.59;99274.59;4459394;32;33885;-86
2021/05/01 01:55:54;;;;;;;15.85;8.68;;;;;;;16.49;57.61;99272.84;4472481;32;34517;-86
2021/05/01 01:58:26;;;;;;;11.27;8.18;;;;;;;16.43;57.72;99281.75;4461151;32;34894;-87
2021/05/01 02:00:54;;;;;;;12.75;8.18;;;;;;;16.41;57.74;99278.31;4446746;32;34104;-86
2021/05/01 02:03:26;;;;;;;11.10;7.45;;;;;;;16.57;57.34;99278.75;4460540;32;34533;-86
2021/05/01 02:05:53;;;;;;;9.93;8.02;;;;;;;16.57;56.92;99279.56;4459442;32;33577;-86
2021/05/01 02:08:21;;;;;;;12.65;8.52;;;;;;;16.43;57.41;99276.50;4472385;32;33235;-85
2021/05/01 02:10:48;;;;;;;12.73;8.43;;;;;;;16.42;57.32;99273.94;4472385;32;34230;-86
2021/05/01 02:13:19;;;;;;;13.35;7.97;;;;;;;16.29;57.80;99273.47;4472755;32;34775;-86
2021/05/01 02:15:47;;;;;;;14.00;8.48;;;;;;;16.21;58.13;99275.47;4459366;32;33563;-86
2021/05/01 02:18:14;;;;;;;11.10;7.90;;;;;;;16.31;57.98;99269.00;4446721;32;32862;-86
2021/05/01 02:20:41;;;;;;;14.43;8.15;;;;;;;16.30;57.81;99263.81;4459292;32;32544;-86
2021/05/01 02:23:11;;;;;;;14.13;8.55;;;;;;;16.21;58.12;99265.81;4459416;32;33789;-86
2021/05/01 02:25:42;;;;;;;11.32;8.05;;;;;;;16.23;58.22;99273.66;4460390;32;33826;-86
2021/05/01 02:28:10;;;;;;;13.98;8.88;;;;;;;16.18;58.52;99286.06;4459175;32;32760;-86
2021/05/01 02:30:37;;;;;;;12.15;8.50;;;;;;;16.13;58.43;99288.84;4472384;32;34586;-86
2021/05/01 02:33:05;;;;;;;12.27;8.57;;;;;;;15.95;59.02;99286.75;4459073;32;34222;-86
2021/05/01 02:35:38;;;;;;;11.10;8.48;;;;;;;15.81;59.43;99285.47;4459741;32;34735;-86
2021/05/01 02:38:06;;;;;;;13.13;7.93;;;;;;;16.18;58.47;99284.31;4459629;32;33342;-86
2021/05/01 02:40:34;;;;;;;12.15;8.02;;;;;;;16.31;57.75;99276.87;4459354;32;34003;-86
2021/05/01 02:43:07;;;;;;;11.15;8.38;;;;;;;16.23;58.08;99281.53;4459375;32;35759;-86
2021/05/01 02:45:35;;;;;;;16.58;9.10;;;;;;;16.30;57.99;99271.69;4471644;32;35289;-85
2021/05/01 02:48:03;;;;;;;14.68;8.07;;;;;;;16.37;57.68;99271.47;4446689;32;33111;-85
2021/05/01 02:50:31;;;;;;;10.82;8.43;;;;;;;16.35;57.75;99252.28;4472164;32;34491;-85
2021/05/01 02:52:59;;;;;;;11.32;8.18;;;;;;;16.36;57.62;99247.88;4472042;32;34263;-85
2021/05/01 02:55:26;;;;;;;12.98;8.45;;;;;;;16.52;57.15;99247.34;4458921;32;33651;-85
2021/05/01 02:57:54;;;;;;;12.65;8.32;;;;;;;16.26;58.04;99236.81;4471878;32;32649;-85
2021/05/01 03:00:24;;;;;;;13.07;8.27;;;;;;;16.38;57.76;99240.84;4472250;32;33842;-85
2021/05/01 03:02:53;;;;;;;10.88;8.50;;;;;;;16.38;57.77;99244.28;4459507;32;35337;-85
2021/05/01 03:05:22;;;;;;;11.70;8.63;;;;;;;16.33;57.78;99245.38;4459359;32;34636;-85
2021/05/01 03:07:50;;;;;;;11.82;7.85;;;;;;;16.22;58.26;99249.19;4471956;32;33454;-85
2021/05/01 03:10:20;;;;;;;10.70;8.05;;;;;;;16.17;58.65;99245.84;4446100;32;33336;-85
2021/05/01 03:12:47;;;;;;;11.12;8.63;;;;;;;16.21;58.70;99259.75;4471628;32;35784;-85
2021/05/01 03:15:16;;;;;;;16.75;8.63;;;;;;;16.15;58.76;99257.28;4471323;32;33946;-85
2021/05/01 03:17:44;;;;;;;14.90;8.13;;;;;;;16.22;58.53;99256.19;4471255;32;33555;-84
2021/05/01 03:20:13;;;;;;;12.35;8.80;;;;;;;16.35;58.30;99257.53;4458323;32;33654;-85
2021/05/01 03:22:40;;;;;;;11.00;8.13;;;;;;;16.40;58.39;99260.00;4458506;32;35742;-85
2021/05/01 03:25:09;;;;;;;13.57;8.70;;;;;;;16.15;59.05;99259.91;4471155;32;34744;-85
2021/05/01 03:27:37;;;;;;;12.13;8.30;;;;;;;16.24;58.84;99260.47;4458309;32;33849;-85
2021/05/01 03:30:09;;;;;;;13.00;8.48;;;;;;;16.30;58.58;99253.34;4458401;32;35427;-85
2021/05/01 03:32:37;;;;;;;11.88;8.00;;;;;;;16.31;58.51;99249.81;4471284;32;34484;-85
2021/05/01 03:35:06;;;;;;;12.77;8.10;;;;;;;16.38;58.42;99249.53;4458374;32;34613;-85
2021/05/01 03:37:34;;;;;;;13.02;8.57;;;;;;;16.36;58.63;99248.75;4458068;32;32923;-85
2021/05/01 03:40:06;;;;;;;10.80;8.13;;;;;;;16.46;58.09;99251.91;4445353;32;34578;-85
2021/05/01 03:42:34;;;;;;;;;;;;;;;16.51;57.93;99245.66;4472086;32;34404;-84
2021/05/01 03:45:01;;;;;;;11.60;7.75;;;;;;;16.45;58.28;99244.97;4445788;32;33669;-86
2021/05/01 03:47:29;;;;;;;12.93;8.38;;;;;;;16.32;58.45;99252.38;4458459;32;33317;-85
2021/05/01 03:49:57;;;;;;;12.52;8.13;;;;;;;16.33;58.62;99259.31;4458526;32;33437;-85
2021/05/01 03:52:25;;;;;;;10.48;7.62;;;;;;;16.35;58.51;99267.16;4471372;32;35282;-85
2021/05/01 03:54:52;;;;;;;10.93;8.25;;;;;;;16.27;58.72;99264.78;4445986;32;33578;-85
2021/05/01 03:57:19;;;;;;;13.57;8.55;;;;;;;16.27;58.76;99263.03;4459955;32;33291;-85
2021/05/01 03:59:46;;;;;;;13.57;8.68;;;;;;;16.33;58.71;99254.06;4460404;32;34040;-85
2021/05/01 04:02:14;;;;;;;11.15;7.65;;;;;;;16.46;58.40;99262.44;4460363;32;33875;-85
2021/05/01 04:04:41;;;;;;;14.07;8.18;;;;;;;16.56;58.08;99269.13;4473073;32;33521;-85
2021/05/01 04:07:08;;;;;;;12.63;8.90;;;;;;;16.44;58.68;99272.13;4472753;32;33150;-86
2021/05/01 04:09:37;;;;;;;12.02;8.43;;;;;;;16.58;58.51;99277.81;4460213;32;34148;-84
2021/05/01 04:12:05;;;;;;;13.07;8.50;;;;;;;16.53;58.60;99280.59;4460149;32;36122;-85
2021/05/01 04:14:32;;;;;;;10.85;7.93;;;;;;;16.46;58.90;99281.66;4460117;32;33855;-85
2021/05/01 04:16:59;;;;;;;14.00;7.80;;;;;;;16.55;58.81;99286.66;4487103;32;33643;-85
2021/05/01 04:19:27;;;;;;;9.27;6.60;;;;;;;16.53;58.74;99284.97;4460272;32;33799;-85
2021/05/01 04:22:02;;;;;;;10.27;7.10;;;;;;;16.59;58.45;99283.00;4460066;32;33893;-85
2021/05/01 04:24:31;;;;;;;12.13;6.93;;;;;;;16.72;58.05;99276.44;4461194;32;34093;-85
2021/05/01 04:26:59;;;;;;;9.48;6.47;;;;;;;16.86;57.49;99287.34;4460156;32;34333;-85
2021/05/01 04:29:26;;;;;;;11.48;6.70;;;;;;;16.89;57.48;99282.00;4473150;32;33798;-86
2021/05/01 04:31:54;;;;;;;9.48;7.05;;;;;;;17.06;56.86;99280.56;4473289;32;34773;-85
2021/05/01 04:34:22;;;;;;;9.70;6.82;;;;;;;16.90;57.38;99294.22;4473066;32;34263;-85
2021/05/01 04:36:49;;;;;;;11.23;6.40;;;;;;;16.92;57.93;99289.75;4447596;32;32669;-85
2021/05/01 04:39:16;;;;;;;10.70;7.82;;;;;;;16.98;57.90;99287.84;4473055;32;33818;-85
2021/05/01 04:41:44;;;;;;;13.45;6.80;;;;;;;17.06;57.60;99288.44;4487154;32;35804;-86
2021/05/01 04:44:11;;;;;;;14.15;7.80;;;;;;;16.91;57.94;99295.06;4459978;32;35317;-85
2021/05/01 04:46:39;;;;;;;13.77;7.37;;;;;;;17.07;57.47;99287.56;4473051;32;33326;-85
2021/05/01 04:49:07;;;;;;;12.52;7.45;;;;;;;17.23;56.90;99291.34;4472951;32;35138;-85
2021/05/01 04:51:35;;;;;;;8.65;7.35;;;;;;;17.14;57.42;99296.94;4460176;32;35413;-85
2021/05/01 04:54:03;;;;;;;9.82;7.22;;;;;;;17.18;57.62;99298.53;4460003;32;34685;-85
2021/05/01 04:56:31;;;;;;;9.13;6.45;;;;;;;17.24;57.41;99298.31;4472946;32;33422;-85
2021/05/01 04:58:58;;;;;;;10.45;7.10;;;;;;;17.15;57.36;99306.53;4473017;32;34173;-85
2021/05/01 05:01:25;;;;;;;8.23;5.93;;;;;;;17.26;56.51;99310.50;4459882;32;33908;-86
2021/05/01 05:03:53;;;;;;;14.00;6.22;;;;;;;17.28;56.95;99305.19;4459998;32;34036;-86
2021/05/01 05:06:20;;;;;;;9.98;5.78;;;;;;;17.39;56.44;99303.91;4447077;32;32748;-85
2021/05/01 05:08:47;;;;;;;9.50;6.05;;;;;;;17.34;56.87;99315.47;4459866;32;33728;-85
2021/05/01 05:11:16;;;;;;;12.68;6.32;;;;;;;17.39;56.59;99316.19;4460212;32;35822;-85
2021/05/01 05:13:43;;;;;;;8.38;6.25;;;;;;;17.61;55.92;99319.81;4459749;32;34372;-85
2021/05/01 05:16:11;;;;;;;10.50;6.37;;;;;;;17.59;56.02;99319.84;4472875;32;33656;-84
2021/05/01 05:18:38;;;;;;;10.45;6.37;;;;;;;17.59;56.41;99321.59;4459608;32;33378;-85
2021/05/01 05:21:05;;;;;;;13.13;6.47;;;;;;;17.66;56.33;99325.75;4472877;32;34383;-85
2021/05/01 05:23:33;;;;;;;12.40;6.43;;;;;;;17.74;56.13;99321.06;4472783;32;34507;-85
2021/05/01 05:26:00;;;;;;;8.40;5.68;;;;;;;17.95;55.73;99330.78;4472868;32;34560;-85
2021/05/01 05:28:27;;;;;;;13.13;6.75;;;;;;;18.26;55.01;99322.59;4459588;32;34124;-85
2021/05/01 05:30:55;;;;;;;13.68;8.55;;;;;;;18.20;55.40;99318.44;4472778;32;35788;-85
2021/05/01 05:33:22;;;;;;;14.70;8.10;;;;;;;18.33;54.82;99324.06;4446850;32;33237;-85
2021/05/01 05:35:50;;;;;;;12.82;7.75;;;;;;;18.19;55.34;99323.75;4459959;32;33420;-85
2021/05/01 05:38:17;;;;;;;10.07;6.60;;;;;;;18.22;55.14;99321.88;4459572;32;33332;-85
2021/05/01 05:40:45;;;;;;;10.02;6.35;;;;;;;18.33;54.67;99325.88;4459747;32;34101;-85
2021/05/01 05:43:13;;;;;;;9.00;6.22;;;;;;;18.43;54.43;99322.78;4472494;32;33485;-85
2021/05/01 05:45:42;;;;;;;9.20;6.35;;;;;;;18.58;53.95;99321.38;4459651;32;32746;-85
2021/05/01 05:48:09;;;;;;;9.05;6.50;;;;;;;18.58;54.14;99326.62;4472657;32;33827;-83
2021/05/01 05:50:36;;;;;;;13.35;7.22;;;;;;;18.75;53.61;99330.31;4459516;32;35324;-85
2021/05/01 05:53:04;;;;;;;10.40;6.87;;;;;;;18.84;53.68;99329.06;4472521;32;35203;-84
2021/05/01 05:55:31;;;;;;;11.55;7.68;;;;;;;18.85;53.69;99330.81;4472257;32;33644;-84
2021/05/01 05:57:58;;;;;;;8.82;7.00;;;;;;;18.93;53.69;99332.19;4459393;32;33719;-85
2021/05/01 06:00:26;;;;;;;8.98;6.90;;;;;;;19.06;53.56;99329.91;4472396;32;34346;-84
2021/05/01 06:02:59;;;;;;;10.10;7.18;;;;;;;19.27;53.52;99333.41;4472643;32;33937;-85
2021/05/01 06:05:36;;;;;;;10.10;6.63;;;;;;;19.13;53.79;99339.28;4460029;32;33573;-84
2021/05/01 06:08:05;;;;;;;13.65;6.78;;;;;;;19.21;53.96;99345.06;4459494;32;34125;-84
2021/05/01 06:10:33;;;;;;;12.82;7.22;;;;;;;19.31;53.94;99338.47;4471847;32;35368;-84
2021/05/01 06:13:03;;;;;;;11.55;6.75;;;;;;;19.33;53.94;99334.00;4471153;32;33458;-85
2021/05/01 06:15:31;;;;;;;10.90;6.85;;;;;;;19.41;53.78;99333.69;4472283;32;34810;-86
2021/05/01 06:18:00;;;;;;;8.95;5.80;;;;;;;19.28;54.02;99324.59;4458988;32;33872;-87
2021/05/01 06:20:29;;;;;;;10.95;6.40;;;;;;;19.65;52.92;99318.59;4458841;32;34405;-85
2021/05/01 06:22:56;;;;;;;10.18;5.47;;;;;;;19.47;53.25;99320.22;4459213;32;33820;-85
2021/05/01 06:25:24;;;;;;;8.70;5.12;;;;;;;19.61;52.75;99317.88;4472320;32;33587;-85
2021/05/01 06:27:52;;;;;;;9.15;5.12;;;;;;;19.74;52.67;99318.16;4472149;32;35176;-85
2021/05/01 06:30:21;;;;;;;9.63;4.75;;;;;;;19.96;51.61;99326.84;4459055;32;35863;-85
2021/05/01 06:32:50;;;;;;;6.72;3.87;;;;;;;19.95;50.47;99333.88;4459818;32;34199;-86
2021/05/01 06:35:18;;;;;;;8.05;4.32;;;;;;;19.99;50.09;99324.06;4459764;32;33571;-86
2021/05/01 06:37:49;;;;;;;5.57;4.20;;;;;;;20.26;49.87;99325.44;4459305;32;33802;-86
2021/05/01 06:40:20;;;;;;;8.43;4.53;;;;;;;20.31;49.63;99326.09;4459608;32;35970;-86
2021/05/01 06:43:02;;;;;;;7.43;3.25;;;;;;;20.45;49.01;99328.94;4472799;32;34160;-86
2021/05/01 06:45:32;;;;;;;6.45;4.07;;;;;;;20.49;48.02;99343.69;4472937;32;33385;-86
2021/05/01 06:48:03;;;;;;;5.28;4.05;;;;;;;20.39;48.68;99345.09;4472165;32;33901;-86
2021/05/01 06:50:31;;;;;;;6.72;4.80;;;;;;;20.00;48.24;99342.47;4446604;32;34927;-85
2021/05/01 06:52:58;;;;;;;7.00;3.92;;;;;;;20.12;48.22;99343.69;4472147;32;34013;-85
2021/05/01 06:55:30;;;;;;;6.43;4.43;;;;;;;20.40;47.97;99341.50;4459464;32;33957;-85
2021/05/01 06:57:59;;;;;;;7.65;5.65;;;;;;;20.42;47.48;99333.53;4472111;32;33914;-84
2021/05/01 07:00:28;;;;;;;7.87;4.93;;;;;;;20.11;47.53;99334.06;4456099;32;102056;-84
2021/05/01 07:03:03;;;;;;;6.53;5.05;;;;;;;19.95;48.08;99333.88;4472009;32;35256;-83
2021/05/01 07:05:31;;;;;;;9.27;5.70;;;;;;;19.91;48.31;99321.78;4472055;32;34071;-83
2021/05/01 07:07:58;;;;;;;9.90;5.65;;;;;;;19.92;48.64;99320.81;4458734;32;33308;-84
2021/05/01 07:10:35;;;;;;;7.30;5.80;;;;;;;19.90;49.51;99316.53;4461391;32;34233;-84
2021/05/01 07:13:05;;;;;;;8.60;6.07;;;;;;;20.25;48.78;99305.28;4485442;32;34042;-84
2021/05/01 07:15:32;;;;;;;7.10;6.40;;;;;;;20.36;47.85;99308.25;4458404;32;33221;-84
2021/05/01 07:18:15;;;;;;;10.32;6.30;;;;;;;20.44;47.23;99311.38;4485829;32;35209;-84
2021/05/01 07:20:44;;;;;;;9.18;6.85;;;;;;;20.14;47.72;99315.41;4472249;32;34395;-85
2021/05/01 07:23:15;;;;;;;9.15;6.12;;;;;;;20.35;47.59;99317.09;4472525;32;34951;-85
2021/05/01 07:25:42;;;;;;;11.07;6.35;;;;;;;20.40;47.45;99325.66;4471753;32;33341;-84
2021/05/01 07:28:13;;;;;;;7.50;6.15;;;;;;;20.28;47.84;99325.41;4459239;32;33377;-85
2021/05/01 07:30:46;;;;;;;7.90;6.43;;;;;;;20.54;47.80;99333.78;4472545;32;34492;-85
2021/05/01 07:33:23;;;;;;;8.32;5.80;;;;;;;20.56;47.83;99331.91;4446122;32;33517;-84
2021/05/01 07:35:54;;;;;;;7.05;5.43;;;;;;;20.86;46.35;99334.88;4471971;32;33362;-85
2021/05/01 07:38:23;;;;;;;8.00;5.32;;;;;;;21.05;47.21;99332.19;4459205;32;33733;-84
2021/05/01 07:40:52;;;;;;;8.27;4.75;;;;;;;21.21;47.68;99335.78;4485648;32;34389;-84
2021/05/01 07:43:21;;;;;;;8.25;5.10;;;;;;;21.59;46.78;99330.22;4471527;32;34024;-84
2021/05/01 07:45:52;;;;;;;8.40;5.05;;;;;;;22.02;45.59;99331.50;4471399;32;32949;-84
2021/05/01 07:48:20;;;;;;;6.40;4.85;;;;;;;22.24;44.61;99333.84;4458691;32;34707;-85
2021/05/01 07:50:48;;;;;;;8.25;5.37;;;;;;;22.49;42.82;99331.53;4458654;32;34654;-85
2021/05/01 07:53:16;;;;;;;7.53;4.82;;;;;;;22.54;43.09;99326.81;4458620;32;34015;-84
2021/05/01 07:55:43;;;;;;;5.90;4.93;;;;;;;22.70;42.32;99334.81;4471279;32;34161;-84
2021/05/01 07:58:10;;;;;;;4.97;4.53;;;;;;;22.92;42.83;99331.78;4445494;32;33145;-83
2021/05/01 08:00:38;;;;;;;8.27;4.82;;;;;;;22.97;41.68;99337.66;4458436;32;34081;-84
2021/05/01 08:03:06;;;;;;;6.25;4.93;;;;;;;23.08;41.33;99336.13;4471580;32;33889;-84
2021/05/01 08:05:33;;;;;;;9.63;4.95;;;;;;;22.87;42.99;99337.34;4485505;32;34011;-84
2021/05/01 08:08:00;;;;;;;5.35;4.53;;;;;;;23.10;41.70;99330.72;4485161;32;33736;-84
2021/05/01 08:10:40;;;;;;;5.37;3.72;;;;;;;22.88;42.35;99339.91;4472605;32;34526;-84
2021/05/01 08:13:07;;;;;;;6.28;4.03;;;;;;;23.35;40.87;99344.28;4458674;32;35302;-84
2021/05/01 08:15:41;;;;;;;4.40;3.58;;;;;;;23.58;40.35;99340.25;4459764;32;34936;-84
2021/05/01 08:18:09;;;;;;;10.85;3.72;;;;;;;23.80;39.55;99332.69;4471181;32;33963;-84
2021/05/01 08:20:37;;;;;;;5.75;3.70;;;;;;;23.70;39.72;99344.84;4458343;32;35282;-83
2021/05/01 08:23:04;;;;;;;3.65;2.80;;;;;;;23.97;38.98;99336.00;4457598;32;34658;-83
2021/05/01 08:25:32;;;;;;;6.65;3.78;;;;;;;24.28;37.96;99336.78;4485014;32;34621;-84
2021/05/01 08:27:59;;;;;;;6.32;4.10;;;;;;;24.17;38.90;99329.50;4478697;31;34617;-84
2021/05/01 08:30:26;;;;;;;7.45;3.83;;;;;;;24.19;38.29;99333.75;4474754;31;35758;-84
2021/05/01 08:32:54;;;;;;;5.50;3.20;;;;;;;24.25;37.67;99337.81;4486562;31;34124;-84
2021/05/01 08:35:22;;;;;;;5.43;3.55;;;;;;;24.30;38.02;99334.88;4486039;31;32925;-84
2021/05/01 08:38:13;;;;;;;7.07;3.08;;;;;;;24.47;38.09;99337.31;4458270;31;33281;-84
2021/05/01 08:40:47;;;;;;;5.37;3.30;;;;;;;24.09;38.62;99345.91;4500329;31;34392;-84
2021/05/01 08:43:20;;;;;;;5.20;3.08;;;;;;;24.31;38.02;99344.56;4488147;31;34281;-85
2021/05/01 08:45:53;;;;;;;5.25;3.22;;;;;;;24.43;38.62;99344.66;4502519;31;34007;-84
2021/05/01 08:48:23;;;;;;;3.83;2.78;;;;;;;24.32;37.85;99339.13;4475850;31;33853;-84
2021/05/01 08:50:53;;;;;;;3.45;2.50;;;;;;;24.58;37.38;99330.34;4475712;31;33817;-85
2021/05/01 08:53:21;;;;;;;5.18;3.30;;;;;;;24.65;38.11;99349.44;4488069;31;33966;-83
2021/05/01 08:55:48;;;;;;;4.05;2.50;;;;;;;24.61;36.64;99343.47;4475258;31;32879;-84
2021/05/01 08:58:16;;;;;;;4.62;2.65;;;;;;;24.44;37.09;99334.88;4488541;31;33942;-84
2021/05/01 09:00:47;;;;;;;3.50;2.72;;;;;;;24.74;37.32;99346.19;4488009;31;34367;-84
2021/05/01 09:03:22;;;;;;;3.78;2.45;;;;;;;24.30;37.74;99341.03;4476013;31;35027;-84
2021/05/01 09:05:55;;;;;;;3.55;2.40;;;;;;;24.43;36.24;99338.47;4488892;31;34005;-83
2021/05/01 09:08:24;;;;;;;4.22;2.60;;;;;;;24.78;37.00;99332.63;4488765;31;33830;-84
2021/05/01 09:10:52;;;;;;;3.05;2.65;;;;;;;24.91;35.70;99337.13;4488427;31;35293;-84
2021/05/01 09:13:25;;;;;;;5.45;2.47;;;;;;;25.21;35.22;99335.09;4475505;31;35393;-83
2021/05/01 09:16:07;;;;;;;5.80;2.58;;;;;;;25.27;35.58;99330.19;4475331;31;33163;-85
2021/05/01 09:18:55;;;;;;;4.07;2.22;;;;;;;25.13;35.76;99332.94;4475201;31;33449;-84
2021/05/01 09:21:30;;;;;;;4.30;2.70;;;;;;;25.55;35.61;99323.91;4489305;31;34150;-84
2021/05/01 09:24:00;;;;;;;4.20;3.05;;;;;;;25.49;35.87;99313.66;4475367;31;33825;-83
2021/05/01 09:26:39;;;;;;;4.00;2.75;;;;;;;25.68;35.57;99314.09;4483722;32;34842;-87
2021/05/01 09:29:11;;;;;;;6.55;2.70;;;;;;;25.78;34.57;99325.81;4460359;32;33618;-84
2021/05/01 09:31:44;;;;;;;3.42;2.20;;;;;;;25.96;34.70;99334.34;4459882;32;34242;-84
2021/05/01 09:34:11;;;;;;;7.20;3.33;;;;;;;26.16;34.18;99324.00;4459781;32;34352;-84
2021/05/01 09:36:40;;;;;;;6.93;3.80;;;;;;;26.35;33.59;99315.53;4459568;32;32463;-84
2021/05/01 09:39:12;;;;;;;6.40;3.72;;;;;;;26.12;34.63;99314.53;4459408;32;33222;-85
2021/05/01 09:41:43;;;;;;;5.18;3.10;;;;;;;25.78;34.58;99309.84;4472495;32;34356;-84
2021/05/01 09:44:10;;;;;;;7.50;3.60;;;;;;;25.77;34.89;99308.13;4472585;32;34603;-85
2021/05/01 09:46:37;;;;;;;6.28;3.30;;;;;;;26.23;33.92;99305.75;4472666;32;33189;-84
2021/05/01 09:49:22;;;;;;;5.87;3.12;;;;;;;26.13;34.42;99304.72;4486480;32;33806;-84
2021/05/01 09:52:06;;;;;;;9.60;3.40;;;;;;;26.05;35.40;99301.72;4472738;32;35806;-84
2021/05/01 09:54:39;;;;;;;4.07;2.58;;;;;;;26.28;34.25;99308.09;4471583;32;34696;-84
2021/05/01 09:57:21;;;;;;;5.43;3.08;;;;;;;26.28;34.87;99297.44;4473261;32;34685;-84
2021/05/01 09:59:53;;;;;;;3.45;2.12;;;;;;;26.19;34.51;99298.94;4472368;32;35126;-84
2021/05/01 10:02:33;;;;;;;4.07;2.47;;;;;;;26.32;33.79;99291.75;4473304;32;34414;-85
2021/05/01 10:05:09;;;;;;;4.70;2.17;;;;;;;26.34;33.80;99289.84;4459830;32;33917;-84
2021/05/01 10:07:42;;;;;;;5.00;2.22;;;;;;;26.51;33.72;99289.47;4472092;32;34005;-85
2021/05/01 10:10:10;;;;;;;5.32;2.22;;;;;;;26.64;33.03;99282.28;4459550;32;34477;-84
2021/05/01 10:12:42;;;;;;;11.20;2.47;;;;;;;26.99;33.41;99274.31;4472784;32;34499;-85
2021/05/01 10:15:16;;;;;;;2.08;1.80;;;;;;;26.87;32.77;99265.44;4460072;32;34960;-85
2021/05/01 10:17:47;;;;;;;3.95;1.90;;;;;;;26.94;32.34;99254.28;4486576;32;33620;-85
2021/05/01 10:20:16;;;;;;;4.68;2.60;;;;;;;26.79;32.67;99254.47;4472376;32;33795;-86
2021/05/01 10:22:45;;;;;;;5.78;2.80;;;;;;;26.57;34.15;99256.16;4459437;32;33853;-86
2021/05/01 10:25:13;;;;;;;4.75;1.83;;;;;;;26.44;33.76;99245.53;4459168;32;33944;-85
2021/05/01 10:27:54;;;;;;;5.03;1.98;;;;;;;26.45;34.92;99251.72;4472368;32;34080;-85
2021/05/01 10:30:40;;;;;;;5.95;2.22;;;;;;;26.73;33.90;99252.25;4459855;32;33875;-85
2021/05/01 10:36:05;;;;;;;3.65;2.33;;;;;;;26.70;34.03;99238.25;4472056;32;33578;-84
2021/05/01 10:38:34;;;;;;;3.97;2.35;;;;;;;26.93;32.74;99241.94;4486327;32;34349;-83
2021/05/01 10:41:20;;;;;;;3.53;1.90;;;;;;;26.84;33.00;99244.31;4461080;32;34569;-84
2021/05/01 10:43:56;;;;;;;;;;;;;;;26.93;33.28;99244.59;4472870;32;34409;-81
2021/05/01 10:46:28;;;;;;;3.83;2.15;;;;;;;27.13;32.07;99250.09;4472308;32;34270;-82
2021/05/01 10:49:00;;;;;;;5.62;2.53;;;;;;;26.98;32.69;99245.09;4472044;32;33329;-82
2021/05/01 10:51:30;;;;;;;4.93;2.45;;;;;;;26.85;33.69;99231.81;4486035;32;35051;-82
2021/05/01 10:54:08;;;;;;;7.30;2.87;;;;;;;26.75;33.45;99222.81;4446001;32;35132;-82
2021/05/01 10:56:36;;;;;;;7.45;2.78;;;;;;;27.01;32.82;99224.34;4486080;32;33938;-82
2021/05/01 10:59:08;;;;;;;4.78;2.30;;;;;;;27.00;33.44;99224.47;4471744;32;33737;-82
2021/05/01 11:01:39;;;;;;;8.68;3.10;;;;;;;27.13;32.55;99218.06;4471946;32;35424;-82
2021/05/01 11:04:07;;;;;;;7.20;2.78;;;;;;;26.84;32.74;99214.09;4459422;32;34560;-82
2021/05/01 11:06:46;;;;;;;7.03;2.60;;;;;;;26.72;33.12;99220.34;4471225;32;34391;-82
2021/05/01 11:09:40;;;;;;;9.43;3.87;;;;;;;26.86;33.51;99220.19;4471804;32;33500;-82
2021/05/01 11:12:10;;;;;;;8.50;3.33;;;;;;;26.60;33.41;99221.28;4463768;32;33755;-83
2021/05/01 11:15:02;;;;;;;5.55;4.12;;;;;;;26.71;33.07;99215.97;4473105;32;34468;-83
2021/05/01 11:17:33;;;;;;;6.07;3.25;;;;;;;26.82;32.76;99208.91;4471976;32;34008;-83
2021/05/01 11:20:07;;;;;;;7.12;3.78;;;;;;;26.77;33.28;99218.19;4459169;32;33994;-84
2021/05/01 11:22:36;;;;;;;7.70;4.68;;;;;;;26.87;33.10;99205.88;4471762;32;34550;-84
2021/05/01 11:25:15;;;;;;;8.02;2.60;;;;;;;26.83;33.13;99207.94;4471735;32;34669;-83
2021/05/01 11:27:45;;;;;;;5.40;2.80;;;;;;;26.93;34.42;99210.75;4485904;32;33989;-84
2021/05/01 11:30:16;;;;;;;4.50;2.80;;;;;;;27.14;33.73;99197.56;4471687;32;33365;-83
2021/05/01 11:32:43;;;;;;;6.68;2.25;;;;;;;27.14;33.24;99195.75;4471511;32;33830;-83
2021/05/01 11:35:15;;;;;;;6.45;3.40;;;;;;;27.03;34.60;99201.06;4471785;32;35081;-84
2021/05/01 11:37:49;;;;;;;5.20;3.00;;;;;;;27.16;33.17;99196.50;4485665;32;34011;-83
2021/05/01 11:40:17;;;;;;;5.75;3.15;;;;;;;27.33;33.26;99197.84;4471579;32;34680;-81
2021/05/01 11:42:45;;;;;;;8.88;3.62;;;;;;;27.43;32.51;99193.53;4471580;32;33868;-82
2021/05/01 11:45:15;;;;;;;11.45;4.72;;;;;;;27.24;33.75;99193.22;4457856;32;33942;-81